sensor_id;sensor_type;location;lat;lon;timestamp;P1;durP1;ratioP1;P2;durP2;ratioP2
56381;SDS011;74506;51.150;4.470;2024-02-26T00:02:20;2.40;;;1.40;;
56381;SDS011;74506;51.150;4.470;2024-02-26T00:04:46;3.80;;;1.65;;
56381;SDS011;74506;51.150;4.470;2024-02-26T00:07:11;4.07;;;1.30;;
56381;SDS011;74506;51.150;4.470;2024-02-26T00:09:37;3.53;;;1.50;;
56381;SDS011;74506;51.150;4.470;2024-02-26T00:12:03;3.95;;;1.85;;
56381;SDS011;74506;51.150;4.470;2024-02-26T00:14:29;3.25;;;1.42;;
56381;SDS011;74506;51.150;4.470;2024-02-26T00:16:55;2.08;;;1.13;;
56381;SDS011;74506;51.150;4.470;2024-02-26T00:19:20;1.80;;;0.98;;
56381;SDS011;74506;51.150;4.470;2024-02-26T00:21:46;3.75;;;1.23;;
56381;SDS011;74506;51.150;4.470;2024-02-26T00:24:12;3.75;;;1.45;;
56381;SDS011;74506;51.150;4.470;2024-02-26T00:26:37;4.25;;;1.30;;
56381;SDS011;74506;51.150;4.470;2024-02-26T00:29:03;1.75;;;1.20;;
56381;SDS011;74506;51.150;4.470;2024-02-26T00:31:29;2.88;;;1.20;;
56381;SDS011;74506;51.150;4.470;2024-02-26T00:33:54;1.88;;;1.15;;
56381;SDS011;74506;51.150;4.470;2024-02-26T00:36:20;3.75;;;1.50;;
56381;SDS011;74506;51.150;4.470;2024-02-26T00:38:46;2.58;;;1.25;;
56381;SDS011;74506;51.150;4.470;2024-02-26T00:41:19;3.40;;;1.08;;
56381;SDS011;74506;51.150;4.470;2024-02-26T00:43:45;2.65;;;1.00;;
56381;SDS011;74506;51.150;4.470;2024-02-26T00:46:10;4.25;;;0.95;;
56381;SDS011;74506;51.150;4.470;2024-02-26T00:48:36;1.90;;;1.15;;
56381;SDS011;74506;51.150;4.470;2024-02-26T00:51:03;3.88;;;1.10;;
56381;SDS011;74506;51.150;4.470;2024-02-26T00:53:30;2.08;;;1.15;;
56381;SDS011;74506;51.150;4.470;2024-02-26T00:55:56;2.00;;;1.00;;
56381;SDS011;74506;51.150;4.470;2024-02-26T00:58:22;2.03;;;1.13;;
56381;SDS011;74506;51.150;4.470;2024-02-26T01:00:47;2.75;;;1.08;;
56381;SDS011;74506;51.150;4.470;2024-02-26T01:03:13;2.28;;;0.98;;
56381;SDS011;74506;51.150;4.470;2024-02-26T01:05:39;2.83;;;0.90;;
56381;SDS011;74506;51.150;4.470;2024-02-26T01:08:04;1.75;;;1.20;;
56381;SDS011;74506;51.150;4.470;2024-02-26T01:10:30;3.60;;;1.13;;
56381;SDS011;74506;51.150;4.470;2024-02-26T01:12:56;2.85;;;1.13;;
56381;SDS011;74506;51.150;4.470;2024-02-26T01:15:22;1.10;;;0.80;;
56381;SDS011;74506;51.150;4.470;2024-02-26T01:17:49;3.40;;;1.27;;
56381;SDS011;74506;51.150;4.470;2024-02-26T01:20:15;2.53;;;1.17;;
56381;SDS011;74506;51.150;4.470;2024-02-26T01:22:42;1.92;;;1.00;;
56381;SDS011;74506;51.150;4.470;2024-02-26T01:25:07;3.55;;;1.05;;
56381;SDS011;74506;51.150;4.470;2024-02-26T01:27:35;2.55;;;1.00;;
56381;SDS011;74506;51.150;4.470;2024-02-26T01:30:02;2.20;;;1.13;;
56381;SDS011;74506;51.150;4.470;2024-02-26T01:32:29;3.70;;;1.83;;
56381;SDS011;74506;51.150;4.470;2024-02-26T01:34:54;2.17;;;1.23;;
56381;SDS011;74506;51.150;4.470;2024-02-26T01:37:20;2.75;;;1.30;;
56381;SDS011;74506;51.150;4.470;2024-02-26T01:39:46;2.88;;;1.60;;
56381;SDS011;74506;51.150;4.470;2024-02-26T01:42:11;2.08;;;1.15;;
56381;SDS011;74506;51.150;4.470;2024-02-26T01:44:37;3.42;;;1.45;;
56381;SDS011;74506;51.150;4.470;2024-02-26T01:47:03;3.08;;;1.35;;
56381;SDS011;74506;51.150;4.470;2024-02-26T01:49:29;3.88;;;1.30;;
56381;SDS011;74506;51.150;4.470;2024-02-26T01:51:55;2.97;;;1.17;;
56381;SDS011;74506;51.150;4.470;2024-02-26T01:54:21;2.13;;;1.40;;
56381;SDS011;74506;51.150;4.470;2024-02-26T01:56:47;7.20;;;1.63;;
56381;SDS011;74506;51.150;4.470;2024-02-26T01:59:13;3.45;;;1.20;;
56381;SDS011;74506;51.150;4.470;2024-02-26T02:01:39;3.35;;;1.30;;
56381;SDS011;74506;51.150;4.470;2024-02-26T02:04:06;3.83;;;1.50;;
56381;SDS011;74506;51.150;4.470;2024-02-26T02:06:31;2.85;;;1.38;;
56381;SDS011;74506;51.150;4.470;2024-02-26T02:08:57;4.28;;;1.90;;
56381;SDS011;74506;51.150;4.470;2024-02-26T02:11:22;3.05;;;1.50;;
56381;SDS011;74506;51.150;4.470;2024-02-26T02:13:48;2.85;;;1.38;;
56381;SDS011;74506;51.150;4.470;2024-02-26T02:16:14;2.38;;;1.35;;
56381;SDS011;74506;51.150;4.470;2024-02-26T02:18:39;2.28;;;1.63;;
56381;SDS011;74506;51.150;4.470;2024-02-26T02:21:05;2.25;;;1.20;;
56381;SDS011;74506;51.150;4.470;2024-02-26T02:23:31;2.00;;;1.40;;
56381;SDS011;74506;51.150;4.470;2024-02-26T02:25:57;2.10;;;1.30;;
56381;SDS011;74506;51.150;4.470;2024-02-26T02:28:23;3.00;;;1.52;;
56381;SDS011;74506;51.150;4.470;2024-02-26T02:30:49;2.22;;;1.20;;
56381;SDS011;74506;51.150;4.470;2024-02-26T02:33:15;1.48;;;1.08;;
56381;SDS011;74506;51.150;4.470;2024-02-26T02:35:41;2.38;;;1.30;;
56381;SDS011;74506;51.150;4.470;2024-02-26T02:38:07;2.78;;;1.50;;
56381;SDS011;74506;51.150;4.470;2024-02-26T02:40:32;2.88;;;1.30;;
56381;SDS011;74506;51.150;4.470;2024-02-26T02:42:58;3.03;;;1.33;;
56381;SDS011;74506;51.150;4.470;2024-02-26T02:45:25;2.83;;;1.50;;
56381;SDS011;74506;51.150;4.470;2024-02-26T02:47:51;5.18;;;1.60;;
56381;SDS011;74506;51.150;4.470;2024-02-26T02:50:16;2.47;;;1.17;;
56381;SDS011;74506;51.150;4.470;2024-02-26T02:52:42;3.67;;;1.55;;
56381;SDS011;74506;51.150;4.470;2024-02-26T02:55:08;2.58;;;1.30;;
56381;SDS011;74506;51.150;4.470;2024-02-26T02:57:33;2.63;;;1.63;;
56381;SDS011;74506;51.150;4.470;2024-02-26T02:59:59;4.55;;;1.80;;
56381;SDS011;74506;51.150;4.470;2024-02-26T03:02:25;4.13;;;1.73;;
56381;SDS011;74506;51.150;4.470;2024-02-26T03:04:51;3.35;;;1.60;;
56381;SDS011;74506;51.150;4.470;2024-02-26T03:07:17;3.97;;;2.08;;
56381;SDS011;74506;51.150;4.470;2024-02-26T03:09:42;3.70;;;2.10;;
56381;SDS011;74506;51.150;4.470;2024-02-26T03:12:08;2.47;;;1.80;;
56381;SDS011;74506;51.150;4.470;2024-02-26T03:14:34;3.60;;;2.00;;
56381;SDS011;74506;51.150;4.470;2024-02-26T03:17:00;2.53;;;1.90;;
56381;SDS011;74506;51.150;4.470;2024-02-26T03:19:25;3.95;;;2.13;;
56381;SDS011;74506;51.150;4.470;2024-02-26T03:21:51;3.15;;;2.05;;
56381;SDS011;74506;51.150;4.470;2024-02-26T03:24:16;4.50;;;2.30;;
56381;SDS011;74506;51.150;4.470;2024-02-26T03:26:42;4.72;;;2.13;;
56381;SDS011;74506;51.150;4.470;2024-02-26T03:29:08;4.18;;;2.50;;
56381;SDS011;74506;51.150;4.470;2024-02-26T03:31:34;4.60;;;2.40;;
56381;SDS011;74506;51.150;4.470;2024-02-26T03:33:59;3.35;;;2.42;;
56381;SDS011;74506;51.150;4.470;2024-02-26T03:36:25;3.10;;;2.20;;
56381;SDS011;74506;51.150;4.470;2024-02-26T03:38:51;4.03;;;2.45;;
56381;SDS011;74506;51.150;4.470;2024-02-26T03:41:16;4.47;;;2.60;;
56381;SDS011;74506;51.150;4.470;2024-02-26T03:43:42;6.07;;;2.97;;
56381;SDS011;74506;51.150;4.470;2024-02-26T03:46:08;6.63;;;2.70;;
56381;SDS011;74506;51.150;4.470;2024-02-26T03:48:34;7.80;;;3.25;;
56381;SDS011;74506;51.150;4.470;2024-02-26T03:51:00;4.88;;;3.30;;
56381;SDS011;74506;51.150;4.470;2024-02-26T03:53:25;4.78;;;3.10;;
56381;SDS011;74506;51.150;4.470;2024-02-26T03:55:51;5.32;;;3.78;;
56381;SDS011;74506;51.150;4.470;2024-02-26T03:58:17;7.55;;;4.05;;
56381;SDS011;74506;51.150;4.470;2024-02-26T04:00:43;4.57;;;3.47;;
56381;SDS011;74506;51.150;4.470;2024-02-26T04:03:09;5.90;;;3.15;;
56381;SDS011;74506;51.150;4.470;2024-02-26T04:05:35;4.88;;;3.22;;
56381;SDS011;74506;51.150;4.470;2024-02-26T04:08:00;4.65;;;3.65;;
56381;SDS011;74506;51.150;4.470;2024-02-26T04:10:26;4.35;;;3.58;;
56381;SDS011;74506;51.150;4.470;2024-02-26T04:12:52;7.95;;;3.60;;
56381;SDS011;74506;51.150;4.470;2024-02-26T04:15:17;8.43;;;3.50;;
56381;SDS011;74506;51.150;4.470;2024-02-26T04:17:43;5.30;;;3.30;;
56381;SDS011;74506;51.150;4.470;2024-02-26T04:20:12;6.65;;;3.58;;
56381;SDS011;74506;51.150;4.470;2024-02-26T04:22:38;5.93;;;3.35;;
56381;SDS011;74506;51.150;4.470;2024-02-26T04:25:03;5.65;;;3.10;;
56381;SDS011;74506;51.150;4.470;2024-02-26T04:27:29;5.47;;;3.25;;
56381;SDS011;74506;51.150;4.470;2024-02-26T04:29:54;3.55;;;3.10;;
56381;SDS011;74506;51.150;4.470;2024-02-26T04:32:20;4.25;;;3.42;;
56381;SDS011;74506;51.150;4.470;2024-02-26T04:34:45;4.78;;;3.28;;
56381;SDS011;74506;51.150;4.470;2024-02-26T04:37:11;6.07;;;3.05;;
56381;SDS011;74506;51.150;4.470;2024-02-26T04:39:37;4.55;;;3.25;;
56381;SDS011;74506;51.150;4.470;2024-02-26T04:42:02;4.28;;;3.25;;
56381;SDS011;74506;51.150;4.470;2024-02-26T04:44:29;5.60;;;2.90;;
56381;SDS011;74506;51.150;4.470;2024-02-26T04:46:54;4.45;;;2.70;;
56381;SDS011;74506;51.150;4.470;2024-02-26T04:49:20;3.75;;;2.80;;
56381;SDS011;74506;51.150;4.470;2024-02-26T04:51:45;3.78;;;2.90;;
56381;SDS011;74506;51.150;4.470;2024-02-26T04:54:13;4.95;;;2.50;;
56381;SDS011;74506;51.150;4.470;2024-02-26T04:56:39;4.45;;;2.55;;
56381;SDS011;74506;51.150;4.470;2024-02-26T04:59:05;3.33;;;2.35;;
56381;SDS011;74506;51.150;4.470;2024-02-26T05:01:30;2.95;;;2.20;;
56381;SDS011;74506;51.150;4.470;2024-02-26T05:03:56;2.97;;;2.15;;
56381;SDS011;74506;51.150;4.470;2024-02-26T05:06:22;2.53;;;2.15;;
56381;SDS011;74506;51.150;4.470;2024-02-26T05:08:47;3.33;;;2.55;;
56381;SDS011;74506;51.150;4.470;2024-02-26T05:11:12;3.78;;;2.42;;
56381;SDS011;74506;51.150;4.470;2024-02-26T05:13:38;2.97;;;2.40;;
56381;SDS011;74506;51.150;4.470;2024-02-26T05:16:03;3.33;;;2.30;;
56381;SDS011;74506;51.150;4.470;2024-02-26T05:18:29;3.35;;;2.38;;
56381;SDS011;74506;51.150;4.470;2024-02-26T05:20:55;3.05;;;2.05;;
56381;SDS011;74506;51.150;4.470;2024-02-26T05:23:20;4.05;;;2.45;;
56381;SDS011;74506;51.150;4.470;2024-02-26T05:25:46;3.35;;;2.30;;
56381;SDS011;74506;51.150;4.470;2024-02-26T05:28:13;3.05;;;2.38;;
56381;SDS011;74506;51.150;4.470;2024-02-26T05:30:41;3.72;;;2.20;;
56381;SDS011;74506;51.150;4.470;2024-02-26T05:33:06;3.22;;;2.28;;
56381;SDS011;74506;51.150;4.470;2024-02-26T05:35:32;3.85;;;2.38;;
56381;SDS011;74506;51.150;4.470;2024-02-26T05:37:57;3.83;;;2.42;;
56381;SDS011;74506;51.150;4.470;2024-02-26T05:40:23;2.78;;;2.10;;
56381;SDS011;74506;51.150;4.470;2024-02-26T05:42:49;4.35;;;2.70;;
56381;SDS011;74506;51.150;4.470;2024-02-26T05:45:14;2.75;;;2.28;;
56381;SDS011;74506;51.150;4.470;2024-02-26T05:47:40;3.40;;;2.38;;
56381;SDS011;74506;51.150;4.470;2024-02-26T05:50:08;3.30;;;2.28;;
56381;SDS011;74506;51.150;4.470;2024-02-26T05:52:36;3.70;;;2.45;;
56381;SDS011;74506;51.150;4.470;2024-02-26T05:55:02;3.10;;;2.30;;
56381;SDS011;74506;51.150;4.470;2024-02-26T05:57:28;5.00;;;2.38;;
56381;SDS011;74506;51.150;4.470;2024-02-26T05:59:53;4.43;;;2.45;;
56381;SDS011;74506;51.150;4.470;2024-02-26T06:02:19;3.00;;;2.40;;
56381;SDS011;74506;51.150;4.470;2024-02-26T06:04:45;3.00;;;2.17;;
56381;SDS011;74506;51.150;4.470;2024-02-26T06:07:12;3.35;;;2.30;;
56381;SDS011;74506;51.150;4.470;2024-02-26T06:09:37;3.10;;;2.38;;
56381;SDS011;74506;51.150;4.470;2024-02-26T06:12:03;3.00;;;2.30;;
56381;SDS011;74506;51.150;4.470;2024-02-26T06:14:29;2.60;;;2.10;;
56381;SDS011;74506;51.150;4.470;2024-02-26T06:16:55;2.83;;;2.38;;
56381;SDS011;74506;51.150;4.470;2024-02-26T06:19:20;2.63;;;2.10;;
56381;SDS011;74506;51.150;4.470;2024-02-26T06:21:46;3.40;;;2.35;;
56381;SDS011;74506;51.150;4.470;2024-02-26T06:24:11;3.42;;;2.20;;
56381;SDS011;74506;51.150;4.470;2024-02-26T06:26:37;4.57;;;2.70;;
56381;SDS011;74506;51.150;4.470;2024-02-26T06:29:03;4.07;;;2.55;;
56381;SDS011;74506;51.150;4.470;2024-02-26T06:31:28;3.03;;;2.35;;
56381;SDS011;74506;51.150;4.470;2024-02-26T06:33:54;4.93;;;2.78;;
56381;SDS011;74506;51.150;4.470;2024-02-26T06:36:21;3.80;;;2.70;;
56381;SDS011;74506;51.150;4.470;2024-02-26T06:38:47;3.88;;;2.75;;
56381;SDS011;74506;51.150;4.470;2024-02-26T06:41:13;4.60;;;2.55;;
56381;SDS011;74506;51.150;4.470;2024-02-26T06:43:38;3.40;;;2.40;;
56381;SDS011;74506;51.150;4.470;2024-02-26T06:46:05;4.15;;;2.78;;
56381;SDS011;74506;51.150;4.470;2024-02-26T06:48:30;3.13;;;2.42;;
56381;SDS011;74506;51.150;4.470;2024-02-26T06:50:56;4.88;;;2.53;;
56381;SDS011;74506;51.150;4.470;2024-02-26T06:53:21;2.88;;;2.50;;
56381;SDS011;74506;51.150;4.470;2024-02-26T06:55:47;3.40;;;2.50;;
56381;SDS011;74506;51.150;4.470;2024-02-26T06:58:14;5.25;;;2.08;;
56381;SDS011;74506;51.150;4.470;2024-02-26T07:00:40;3.75;;;2.90;;
56381;SDS011;74506;51.150;4.470;2024-02-26T07:03:05;5.82;;;2.80;;
56381;SDS011;74506;51.150;4.470;2024-02-26T07:05:31;4.88;;;3.03;;
56381;SDS011;74506;51.150;4.470;2024-02-26T07:07:56;4.13;;;3.30;;
56381;SDS011;74506;51.150;4.470;2024-02-26T07:10:22;4.57;;;3.28;;
56381;SDS011;74506;51.150;4.470;2024-02-26T07:12:48;4.93;;;3.00;;
56381;SDS011;74506;51.150;4.470;2024-02-26T07:15:13;4.53;;;2.75;;
56381;SDS011;74506;51.150;4.470;2024-02-26T07:17:39;3.55;;;2.80;;
56381;SDS011;74506;51.150;4.470;2024-02-26T07:20:08;4.20;;;2.92;;
56381;SDS011;74506;51.150;4.470;2024-02-26T07:22:33;3.15;;;2.85;;
56381;SDS011;74506;51.150;4.470;2024-02-26T07:24:59;3.47;;;2.70;;
56381;SDS011;74506;51.150;4.470;2024-02-26T07:27:24;4.35;;;2.38;;
56381;SDS011;74506;51.150;4.470;2024-02-26T07:29:50;3.83;;;2.88;;
56381;SDS011;74506;51.150;4.470;2024-02-26T07:32:16;3.00;;;2.58;;
56381;SDS011;74506;51.150;4.470;2024-02-26T07:34:41;3.85;;;2.90;;
56381;SDS011;74506;51.150;4.470;2024-02-26T07:37:10;3.80;;;2.90;;
56381;SDS011;74506;51.150;4.470;2024-02-26T07:39:36;4.45;;;3.45;;
56381;SDS011;74506;51.150;4.470;2024-02-26T07:42:02;3.47;;;2.80;;
56381;SDS011;74506;51.150;4.470;2024-02-26T07:44:28;3.45;;;3.03;;
56381;SDS011;74506;51.150;4.470;2024-02-26T07:46:53;3.88;;;3.00;;
56381;SDS011;74506;51.150;4.470;2024-02-26T07:49:19;4.55;;;2.85;;
56381;SDS011;74506;51.150;4.470;2024-02-26T07:51:44;2.63;;;2.40;;
56381;SDS011;74506;51.150;4.470;2024-02-26T07:54:10;3.85;;;2.95;;
56381;SDS011;74506;51.150;4.470;2024-02-26T07:56:36;3.20;;;2.75;;
56381;SDS011;74506;51.150;4.470;2024-02-26T07:59:02;3.72;;;2.90;;
56381;SDS011;74506;51.150;4.470;2024-02-26T08:01:27;4.57;;;3.30;;
56381;SDS011;74506;51.150;4.470;2024-02-26T08:03:53;3.50;;;2.90;;
56381;SDS011;74506;51.150;4.470;2024-02-26T08:06:19;3.85;;;2.72;;
56381;SDS011;74506;51.150;4.470;2024-02-26T08:08:44;5.30;;;3.15;;
56381;SDS011;74506;51.150;4.470;2024-02-26T08:11:10;6.00;;;2.88;;
56381;SDS011;74506;51.150;4.470;2024-02-26T08:13:36;3.78;;;3.10;;
56381;SDS011;74506;51.150;4.470;2024-02-26T08:16:01;4.57;;;2.78;;
56381;SDS011;74506;51.150;4.470;2024-02-26T08:18:27;4.28;;;3.45;;
56381;SDS011;74506;51.150;4.470;2024-02-26T08:20:52;4.07;;;3.20;;
56381;SDS011;74506;51.150;4.470;2024-02-26T08:23:18;6.15;;;3.08;;
56381;SDS011;74506;51.150;4.470;2024-02-26T08:25:44;4.00;;;3.15;;
56381;SDS011;74506;51.150;4.470;2024-02-26T08:28:09;4.25;;;3.17;;
56381;SDS011;74506;51.150;4.470;2024-02-26T08:30:38;3.58;;;3.00;;
56381;SDS011;74506;51.150;4.470;2024-02-26T08:33:03;4.20;;;3.28;;
56381;SDS011;74506;51.150;4.470;2024-02-26T08:35:29;6.00;;;3.70;;
56381;SDS011;74506;51.150;4.470;2024-02-26T08:37:55;4.13;;;3.55;;
56381;SDS011;74506;51.150;4.470;2024-02-26T08:40:21;5.20;;;3.60;;
56381;SDS011;74506;51.150;4.470;2024-02-26T08:42:46;3.72;;;3.40;;
56381;SDS011;74506;51.150;4.470;2024-02-26T08:45:11;4.45;;;3.50;;
56381;SDS011;74506;51.150;4.470;2024-02-26T08:47:37;3.58;;;3.10;;
56381;SDS011;74506;51.150;4.470;2024-02-26T08:50:03;5.13;;;3.53;;
56381;SDS011;74506;51.150;4.470;2024-02-26T08:52:29;6.05;;;3.50;;
56381;SDS011;74506;51.150;4.470;2024-02-26T08:54:55;4.90;;;3.90;;
56381;SDS011;74506;51.150;4.470;2024-02-26T08:57:20;4.30;;;3.50;;
56381;SDS011;74506;51.150;4.470;2024-02-26T08:59:46;4.05;;;3.65;;
56381;SDS011;74506;51.150;4.470;2024-02-26T09:02:12;4.20;;;3.47;;
56381;SDS011;74506;51.150;4.470;2024-02-26T09:04:37;4.65;;;4.00;;
56381;SDS011;74506;51.150;4.470;2024-02-26T09:07:03;5.45;;;3.78;;
56381;SDS011;74506;51.150;4.470;2024-02-26T09:09:29;3.88;;;3.47;;
56381;SDS011;74506;51.150;4.470;2024-02-26T09:11:54;4.00;;;3.60;;
56381;SDS011;74506;51.150;4.470;2024-02-26T09:14:21;3.85;;;3.42;;
56381;SDS011;74506;51.150;4.470;2024-02-26T09:16:46;3.47;;;3.00;;
56381;SDS011;74506;51.150;4.470;2024-02-26T09:19:13;6.20;;;3.42;;
56381;SDS011;74506;51.150;4.470;2024-02-26T09:21:43;3.67;;;2.58;;
56381;SDS011;74506;51.150;4.470;2024-02-26T09:24:09;3.38;;;2.42;;
56381;SDS011;74506;51.150;4.470;2024-02-26T09:26:35;3.50;;;2.35;;
56381;SDS011;74506;51.150;4.470;2024-02-26T09:29:01;4.63;;;2.65;;
56381;SDS011;74506;51.150;4.470;2024-02-26T09:31:27;4.88;;;3.00;;
56381;SDS011;74506;51.150;4.470;2024-02-26T09:33:53;3.65;;;2.67;;
56381;SDS011;74506;51.150;4.470;2024-02-26T09:36:18;3.15;;;2.70;;
56381;SDS011;74506;51.150;4.470;2024-02-26T09:38:43;5.35;;;3.10;;
56381;SDS011;74506;51.150;4.470;2024-02-26T09:41:13;5.72;;;2.88;;
56381;SDS011;74506;51.150;4.470;2024-02-26T09:43:39;7.07;;;2.95;;
56381;SDS011;74506;51.150;4.470;2024-02-26T09:46:07;3.60;;;3.08;;
56381;SDS011;74506;51.150;4.470;2024-02-26T09:48:33;4.15;;;3.22;;
56381;SDS011;74506;51.150;4.470;2024-02-26T09:51:00;3.97;;;2.83;;
56381;SDS011;74506;51.150;4.470;2024-02-26T09:53:27;5.13;;;3.05;;
56381;SDS011;74506;51.150;4.470;2024-02-26T09:55:53;7.60;;;2.90;;
56381;SDS011;74506;51.150;4.470;2024-02-26T09:58:19;3.50;;;3.20;;
56381;SDS011;74506;51.150;4.470;2024-02-26T10:00:46;3.78;;;3.40;;
56381;SDS011;74506;51.150;4.470;2024-02-26T10:03:15;3.20;;;2.70;;
56381;SDS011;74506;51.150;4.470;2024-02-26T10:05:42;3.60;;;2.63;;
56381;SDS011;74506;51.150;4.470;2024-02-26T10:08:08;3.25;;;2.40;;
56381;SDS011;74506;51.150;4.470;2024-02-26T10:10:34;4.22;;;2.88;;
56381;SDS011;74506;51.150;4.470;2024-02-26T10:13:00;3.92;;;2.70;;
56381;SDS011;74506;51.150;4.470;2024-02-26T10:15:26;4.13;;;2.72;;
56381;SDS011;74506;51.150;4.470;2024-02-26T10:17:52;3.33;;;2.90;;
56381;SDS011;74506;51.150;4.470;2024-02-26T10:20:18;4.20;;;2.72;;
56381;SDS011;74506;51.150;4.470;2024-02-26T10:22:46;4.10;;;3.13;;
56381;SDS011;74506;51.150;4.470;2024-02-26T10:25:12;5.45;;;3.17;;
56381;SDS011;74506;51.150;4.470;2024-02-26T10:27:38;3.63;;;2.83;;
56381;SDS011;74506;51.150;4.470;2024-02-26T10:30:20;5.38;;;3.30;;
56381;SDS011;74506;51.150;4.470;2024-02-26T10:32:47;2.88;;;2.58;;
56381;SDS011;74506;51.150;4.470;2024-02-26T10:35:13;3.53;;;2.83;;
56381;SDS011;74506;51.150;4.470;2024-02-26T10:37:39;5.35;;;3.55;;
56381;SDS011;74506;51.150;4.470;2024-02-26T10:40:05;3.10;;;2.55;;
56381;SDS011;74506;51.150;4.470;2024-02-26T10:42:31;3.30;;;2.65;;
56381;SDS011;74506;51.150;4.470;2024-02-26T10:44:57;4.60;;;2.67;;
56381;SDS011;74506;51.150;4.470;2024-02-26T10:47:23;5.90;;;3.13;;
56381;SDS011;74506;51.150;4.470;2024-02-26T10:49:49;4.07;;;3.15;;
56381;SDS011;74506;51.150;4.470;2024-02-26T10:52:15;3.65;;;2.90;;
56381;SDS011;74506;51.150;4.470;2024-02-26T10:54:41;3.83;;;3.17;;
56381;SDS011;74506;51.150;4.470;2024-02-26T10:57:09;3.78;;;2.92;;
56381;SDS011;74506;51.150;4.470;2024-02-26T10:59:34;5.03;;;2.80;;
56381;SDS011;74506;51.150;4.470;2024-02-26T11:02:00;5.80;;;3.53;;
56381;SDS011;74506;51.150;4.470;2024-02-26T11:04:26;4.43;;;3.00;;
56381;SDS011;74506;51.150;4.470;2024-02-26T11:06:52;4.90;;;3.38;;
56381;SDS011;74506;51.150;4.470;2024-02-26T11:09:20;4.07;;;2.72;;
56381;SDS011;74506;51.150;4.470;2024-02-26T11:11:47;5.35;;;3.50;;
56381;SDS011;74506;51.150;4.470;2024-02-26T11:14:13;4.13;;;3.17;;
56381;SDS011;74506;51.150;4.470;2024-02-26T11:16:39;5.05;;;3.63;;
56381;SDS011;74506;51.150;4.470;2024-02-26T11:19:06;6.55;;;3.53;;
56381;SDS011;74506;51.150;4.470;2024-02-26T11:21:32;4.28;;;3.15;;
56381;SDS011;74506;51.150;4.470;2024-02-26T11:24:14;5.93;;;3.35;;
56381;SDS011;74506;51.150;4.470;2024-02-26T11:26:47;5.28;;;3.40;;
56381;SDS011;74506;51.150;4.470;2024-02-26T11:29:14;4.30;;;3.13;;
56381;SDS011;74506;51.150;4.470;2024-02-26T11:31:41;4.07;;;3.35;;
56381;SDS011;74506;51.150;4.470;2024-02-26T11:34:07;4.25;;;2.75;;
56381;SDS011;74506;51.150;4.470;2024-02-26T11:36:34;5.47;;;3.55;;
56381;SDS011;74506;51.150;4.470;2024-02-26T11:38:59;5.10;;;3.15;;
56381;SDS011;74506;51.150;4.470;2024-02-26T11:41:25;4.15;;;3.20;;
56381;SDS011;74506;51.150;4.470;2024-02-26T11:43:57;3.92;;;2.88;;
56381;SDS011;74506;51.150;4.470;2024-02-26T11:46:27;4.97;;;3.30;;
56381;SDS011;74506;51.150;4.470;2024-02-26T11:48:54;4.53;;;3.20;;
56381;SDS011;74506;51.150;4.470;2024-02-26T11:51:24;4.88;;;2.63;;
56381;SDS011;74506;51.150;4.470;2024-02-26T11:53:50;4.55;;;2.92;;
56381;SDS011;74506;51.150;4.470;2024-02-26T11:58:58;5.18;;;3.55;;
56381;SDS011;74506;51.150;4.470;2024-02-26T12:01:43;6.60;;;3.67;;
56381;SDS011;74506;51.150;4.470;2024-02-26T12:07:01;4.88;;;3.35;;
56381;SDS011;74506;51.150;4.470;2024-02-26T12:09:30;5.18;;;3.15;;
56381;SDS011;74506;51.150;4.470;2024-02-26T12:11:55;4.43;;;3.25;;
56381;SDS011;74506;51.150;4.470;2024-02-26T12:14:24;5.65;;;3.72;;
56381;SDS011;74506;51.150;4.470;2024-02-26T12:16:50;6.40;;;4.00;;
56381;SDS011;74506;51.150;4.470;2024-02-26T12:19:16;5.10;;;3.80;;
56381;SDS011;74506;51.150;4.470;2024-02-26T12:21:42;5.35;;;4.03;;
56381;SDS011;74506;51.150;4.470;2024-02-26T12:24:09;5.13;;;3.45;;
56381;SDS011;74506;51.150;4.470;2024-02-26T12:26:35;5.32;;;3.85;;
56381;SDS011;74506;51.150;4.470;2024-02-26T12:29:01;5.57;;;3.83;;
56381;SDS011;74506;51.150;4.470;2024-02-26T12:31:27;7.97;;;4.40;;
56381;SDS011;74506;51.150;4.470;2024-02-26T12:33:54;8.32;;;5.38;;
56381;SDS011;74506;51.150;4.470;2024-02-26T12:36:20;5.68;;;3.83;;
56381;SDS011;74506;51.150;4.470;2024-02-26T12:38:46;6.25;;;4.40;;
56381;SDS011;74506;51.150;4.470;2024-02-26T12:41:11;4.65;;;3.45;;
56381;SDS011;74506;51.150;4.470;2024-02-26T12:43:37;6.20;;;4.38;;
56381;SDS011;74506;51.150;4.470;2024-02-26T12:46:03;6.63;;;4.13;;
56381;SDS011;74506;51.150;4.470;2024-02-26T12:48:29;5.88;;;4.13;;
56381;SDS011;74506;51.150;4.470;2024-02-26T12:50:54;7.78;;;5.95;;
56381;SDS011;74506;51.150;4.470;2024-02-26T12:53:21;8.35;;;5.35;;
56381;SDS011;74506;51.150;4.470;2024-02-26T12:55:47;14.68;;;9.35;;
56381;SDS011;74506;51.150;4.470;2024-02-26T12:58:13;8.80;;;5.95;;
56381;SDS011;74506;51.150;4.470;2024-02-26T13:00:39;9.70;;;6.53;;
56381;SDS011;74506;51.150;4.470;2024-02-26T13:03:06;8.40;;;5.55;;
56381;SDS011;74506;51.150;4.470;2024-02-26T13:05:31;8.40;;;4.75;;
56381;SDS011;74506;51.150;4.470;2024-02-26T13:07:58;6.20;;;4.15;;
56381;SDS011;74506;51.150;4.470;2024-02-26T13:10:24;10.15;;;4.90;;
56381;SDS011;74506;51.150;4.470;2024-02-26T13:12:50;7.68;;;4.40;;
56381;SDS011;74506;51.150;4.470;2024-02-26T13:15:19;6.55;;;4.47;;
56381;SDS011;74506;51.150;4.470;2024-02-26T13:17:45;7.50;;;4.90;;
56381;SDS011;74506;51.150;4.470;2024-02-26T13:20:11;8.45;;;3.50;;
56381;SDS011;74506;51.150;4.470;2024-02-26T13:22:36;5.75;;;3.92;;
56381;SDS011;74506;51.150;4.470;2024-02-26T13:25:02;5.93;;;3.85;;
56381;SDS011;74506;51.150;4.470;2024-02-26T13:27:28;6.05;;;3.50;;
56381;SDS011;74506;51.150;4.470;2024-02-26T13:30:04;5.25;;;3.85;;
56381;SDS011;74506;51.150;4.470;2024-02-26T13:32:33;7.10;;;3.53;;
56381;SDS011;74506;51.150;4.470;2024-02-26T13:35:08;5.13;;;3.72;;
56381;SDS011;74506;51.150;4.470;2024-02-26T13:37:34;8.65;;;4.30;;
56381;SDS011;74506;51.150;4.470;2024-02-26T13:40:00;6.45;;;4.18;;
56381;SDS011;74506;51.150;4.470;2024-02-26T13:42:29;5.57;;;3.92;;
56381;SDS011;74506;51.150;4.470;2024-02-26T13:44:55;5.35;;;3.78;;
56381;SDS011;74506;51.150;4.470;2024-02-26T13:47:21;4.97;;;3.40;;
56381;SDS011;74506;51.150;4.470;2024-02-26T13:49:46;4.82;;;3.60;;
56381;SDS011;74506;51.150;4.470;2024-02-26T13:52:12;5.15;;;3.70;;
56381;SDS011;74506;51.150;4.470;2024-02-26T13:54:38;5.30;;;3.90;;
56381;SDS011;74506;51.150;4.470;2024-02-26T13:57:05;4.57;;;3.63;;
56381;SDS011;74506;51.150;4.470;2024-02-26T13:59:31;5.32;;;3.85;;
56381;SDS011;74506;51.150;4.470;2024-02-26T14:01:56;5.03;;;3.72;;
56381;SDS011;74506;51.150;4.470;2024-02-26T14:04:22;6.18;;;4.00;;
56381;SDS011;74506;51.150;4.470;2024-02-26T14:06:48;5.40;;;3.83;;
56381;SDS011;74506;51.150;4.470;2024-02-26T14:09:14;5.45;;;4.28;;
56381;SDS011;74506;51.150;4.470;2024-02-26T14:11:47;7.55;;;4.00;;
56381;SDS011;74506;51.150;4.470;2024-02-26T14:14:13;5.03;;;3.75;;
56381;SDS011;74506;51.150;4.470;2024-02-26T14:16:39;5.93;;;3.67;;
56381;SDS011;74506;51.150;4.470;2024-02-26T14:19:05;5.43;;;3.58;;
56381;SDS011;74506;51.150;4.470;2024-02-26T14:21:30;4.65;;;3.33;;
56381;SDS011;74506;51.150;4.470;2024-02-26T14:23:56;4.78;;;3.45;;
56381;SDS011;74506;51.150;4.470;2024-02-26T14:26:24;4.40;;;3.47;;
56381;SDS011;74506;51.150;4.470;2024-02-26T14:28:50;3.65;;;2.88;;
56381;SDS011;74506;51.150;4.470;2024-02-26T14:31:19;4.53;;;3.10;;
56381;SDS011;74506;51.150;4.470;2024-02-26T14:33:45;4.78;;;3.03;;
56381;SDS011;74506;51.150;4.470;2024-02-26T14:36:11;4.65;;;3.22;;
56381;SDS011;74506;51.150;4.470;2024-02-26T14:38:37;3.95;;;3.40;;
56381;SDS011;74506;51.150;4.470;2024-02-26T14:41:04;4.65;;;3.00;;
56381;SDS011;74506;51.150;4.470;2024-02-26T14:43:29;3.75;;;2.60;;
56381;SDS011;74506;51.150;4.470;2024-02-26T14:45:55;4.97;;;2.88;;
56381;SDS011;74506;51.150;4.470;2024-02-26T14:48:21;4.40;;;2.95;;